createdAt,value
2022-08-16T00:01:24.464Z,98792.25
2022-08-16T00:03:53.133Z,98799.19
2022-08-16T00:06:21.510Z,98799.88
2022-08-16T00:08:50.477Z,98814.03
2022-08-16T00:11:22.363Z,98818.47
2022-08-16T00:13:54.222Z,98818.09
2022-08-16T00:17:00.617Z,98820.16
2022-08-16T00:21:42.554Z,98827.50
2022-08-16T00:24:12.331Z,98825.91
2022-08-16T00:26:44.089Z,98819.97
2022-08-16T00:29:17.028Z,98816.19
2022-08-16T00:32:00.705Z,98824.31
2022-08-16T00:34:43.543Z,98824.88
2022-08-16T00:37:24.436Z,98823.81
2022-08-16T00:39:58.582Z,98817.78
2022-08-16T00:42:31.799Z,98833.31
2022-08-16T00:45:10.882Z,98825.25
2022-08-16T00:47:49.597Z,98825.56
2022-08-16T00:50:20.381Z,98820.22
2022-08-16T00:52:51.450Z,98826.53
2022-08-16T00:55:21.944Z,98826.81
2022-08-16T00:57:59.098Z,98825.03
2022-08-16T01:00:31.948Z,98832.53
2022-08-16T01:03:04.466Z,98835.50
2022-08-16T01:05:34.246Z,98827.78
2022-08-16T01:08:35.319Z,98837.38
2022-08-16T01:10:51.314Z,98838.28
2022-08-16T01:13:22.655Z,98823.84
2022-08-16T01:15:57.276Z,98837.28
2022-08-16T01:18:40.013Z,98837.69
2022-08-16T01:21:22.526Z,98838.88
2022-08-16T01:24:06.726Z,98836.88
2022-08-16T01:26:58.643Z,98837.16
2022-08-16T01:29:57.216Z,98835.84
2022-08-16T01:32:31.590Z,98844.88
2022-08-16T01:35:03.308Z,98841.38
2022-08-16T01:37:38.902Z,98848.72
2022-08-16T01:40:13.566Z,98843.63
2022-08-16T01:42:44.252Z,98836.63
2022-08-16T01:45:16.796Z,98844.34
2022-08-16T01:47:50.986Z,98831.44
2022-08-16T01:50:41.966Z,98833.81
2022-08-16T01:53:11.261Z,98841.91
2022-08-16T01:55:42.846Z,98843.50
2022-08-16T01:58:23.664Z,98840.81
2022-08-16T02:00:51.790Z,98843.19
2022-08-16T02:03:24.176Z,98841.81
2022-08-16T02:05:52.575Z,98837.72
2022-08-16T02:08:33.480Z,98839.19
2022-08-16T02:13:33.172Z,98837.00
2022-08-16T02:16:01.432Z,98842.16
2022-08-16T02:20:58.303Z,98842.94
2022-08-16T02:23:29.652Z,98846.47
2022-08-16T02:25:57.681Z,98845.59
2022-08-16T02:28:29.235Z,98846.75
2022-08-16T02:31:00.541Z,98848.78
2022-08-16T02:33:43.432Z,98849.63
2022-08-16T02:36:14.571Z,98843.28
2022-08-16T02:41:29.691Z,98843.34
2022-08-16T02:44:00.179Z,98840.75
2022-08-16T02:46:33.317Z,98840.16
2022-08-16T02:49:02.321Z,98833.81
2022-08-16T02:51:31.374Z,98839.81
2022-08-16T02:53:59.800Z,98835.94
2022-08-16T02:56:32.296Z,98836.91
2022-08-16T02:59:01.736Z,98833.16
2022-08-16T03:01:37.086Z,98841.44
2022-08-16T03:04:46.383Z,98831.41
2022-08-16T03:14:25.004Z,98837.03
2022-08-16T03:16:59.375Z,98832.84
2022-08-16T03:19:42.218Z,98837.09
2022-08-16T03:22:19.486Z,98834.50
2022-08-16T03:24:57.603Z,98836.09
2022-08-16T03:27:30.820Z,98831.56
2022-08-16T03:30:02.615Z,98831.31
2022-08-16T03:32:45.053Z,98828.72
2022-08-16T03:35:17.806Z,98827.81
2022-08-16T03:38:01.573Z,98830.53
2022-08-16T03:40:33.219Z,98829.91
2022-08-16T03:43:19.994Z,98826.63
2022-08-16T03:45:52.643Z,98819.38
2022-08-16T03:48:36.251Z,98818.19
2022-08-16T03:53:37.790Z,98817.16
2022-08-16T03:56:19.548Z,98824.25
2022-08-16T03:58:50.890Z,98835.19
2022-08-16T04:01:22.159Z,98833.13
2022-08-16T04:03:50.217Z,98835.41
2022-08-16T04:06:18.294Z,98837.09
2022-08-16T04:08:46.286Z,98834.75
2022-08-16T04:11:16.515Z,98837.94
2022-08-16T04:14:00.745Z,98837.66
2022-08-16T04:16:34.695Z,98853.06
2022-08-16T04:19:04.343Z,98847.47
2022-08-16T04:24:03.141Z,98848.00
2022-08-16T04:26:32.089Z,98850.34
2022-08-16T04:29:16.395Z,98854.94
2022-08-16T04:31:56.726Z,98868.03
2022-08-16T04:34:28.189Z,98865.81
2022-08-16T04:36:56.642Z,98875.06
2022-08-16T04:39:37.106Z,98872.41
2022-08-16T04:42:13.562Z,98872.22
2022-08-16T04:44:54.537Z,98870.63
2022-08-16T04:47:31.299Z,98870.44
2022-08-16T04:50:01.576Z,98870.72
2022-08-16T04:52:33.990Z,98873.63
2022-08-16T04:55:06.215Z,98874.97
2022-08-16T04:57:34.494Z,98877.34
2022-08-16T05:00:32.238Z,98880.63
2022-08-16T05:02:54.874Z,98887.91
2022-08-16T05:05:24.618Z,98893.19
2022-08-16T05:07:59.715Z,98890.75
2022-08-16T05:10:29.565Z,98892.09
2022-08-16T05:12:58.400Z,98897.16
2022-08-16T05:15:26.636Z,98897.16
2022-08-16T05:17:59.070Z,98894.38
2022-08-16T05:20:39.535Z,98883.13
2022-08-16T05:23:15.051Z,98891.00
2022-08-16T05:25:48.182Z,98888.66
2022-08-16T05:28:17.256Z,98894.06
2022-08-16T05:30:45.582Z,98886.75
2022-08-16T05:33:21.155Z,98899.56
2022-08-16T05:35:55.168Z,98900.50
2022-08-16T05:38:32.790Z,98899.69
2022-08-16T05:41:09.498Z,98901.06
2022-08-16T05:46:28.803Z,98903.16
2022-08-16T05:51:38.781Z,98904.13
2022-08-16T05:54:11.691Z,98912.28
2022-08-16T05:56:43.339Z,98908.34
2022-08-16T05:59:11.234Z,98904.22
2022-08-16T06:01:39.969Z,98904.97
2022-08-16T06:04:13.557Z,98911.72
2022-08-16T06:09:42.648Z,98908.34
2022-08-16T06:12:12.808Z,98917.91
2022-08-16T06:14:58.769Z,98919.69
2022-08-16T06:20:14.665Z,98915.75
2022-08-16T06:22:45.192Z,98920.66
2022-08-16T06:25:15.895Z,98925.25
2022-08-16T06:27:57.674Z,98923.94
2022-08-16T06:30:28.704Z,98928.09
2022-08-16T06:32:56.832Z,98918.38
2022-08-16T06:35:26.580Z,98922.56
2022-08-16T06:38:22.239Z,98923.97
2022-08-16T06:40:57.552Z,98915.75
2022-08-16T06:43:27.394Z,98922.03
2022-08-16T06:45:56.882Z,98923.19
2022-08-16T06:48:32.921Z,98924.91
2022-08-16T06:51:03.499Z,98926.75
2022-08-16T06:53:33.501Z,98930.38
2022-08-16T06:56:14.918Z,98914.50
2022-08-16T07:01:43.317Z,98915.47
2022-08-16T07:04:10.358Z,98918.81
2022-08-16T07:06:43.048Z,98918.34
2022-08-16T07:14:24.222Z,98922.47
2022-08-16T07:16:55.296Z,98925.69
2022-08-16T07:20:01.587Z,98936.13
2022-08-16T07:22:52.456Z,98925.13
2022-08-16T07:25:05.401Z,98919.47
2022-08-16T07:27:33.897Z,98923.63
2022-08-16T07:30:38.827Z,98927.50
2022-08-16T07:32:56.852Z,98922.78
2022-08-16T07:35:25.799Z,98922.00
2022-08-16T07:37:55.255Z,98924.97
2022-08-16T07:40:49.208Z,98926.56
2022-08-16T07:43:11.224Z,98927.31
2022-08-16T07:45:39.217Z,98926.63
2022-08-16T07:48:12.397Z,98930.28
2022-08-16T07:50:55.740Z,98930.91
2022-08-16T07:53:29.593Z,98938.44
2022-08-16T07:56:00.325Z,98931.44
2022-08-16T07:58:35.128Z,98925.53
2022-08-16T08:01:10.377Z,98930.00
2022-08-16T08:03:47.586Z,98928.91
2022-08-16T08:06:16.868Z,98928.75
2022-08-16T08:11:18.437Z,98936.00
2022-08-16T08:13:46.285Z,98944.19
2022-08-16T08:16:18.494Z,98932.63
2022-08-16T08:21:26.361Z,98940.13
2022-08-16T08:23:57.737Z,98950.06
2022-08-16T08:26:26.096Z,98944.91
2022-08-16T08:31:29.228Z,98946.34
2022-08-16T08:33:58.570Z,98948.84
2022-08-16T08:36:33.531Z,98950.84
2022-08-16T08:39:03.920Z,98950.28
2022-08-16T08:41:42.318Z,98958.03
2022-08-16T08:44:29.060Z,98960.06
2022-08-16T08:47:01.626Z,98945.56
2022-08-16T08:49:46.558Z,98948.81
2022-08-16T08:52:34.297Z,98944.53
2022-08-16T08:55:11.133Z,98948.56
2022-08-16T08:57:40.938Z,98942.63
2022-08-16T09:00:13.078Z,98954.91
2022-08-16T09:02:44.365Z,98950.00
2022-08-16T09:05:15.274Z,98953.44
2022-08-16T09:08:00.329Z,98945.16
2022-08-16T09:10:31.021Z,98959.94
2022-08-16T09:12:58.946Z,98974.59
2022-08-16T09:15:33.266Z,98971.34
2022-08-16T09:18:24.745Z,98968.59
2022-08-16T09:21:00.166Z,98964.34
2022-08-16T09:23:31.163Z,98963.94
2022-08-16T09:29:14.836Z,98966.19
2022-08-16T09:31:44.079Z,98970.94
2022-08-16T09:34:18.689Z,98966.28
2022-08-16T09:36:47.742Z,98963.88
2022-08-16T09:39:16.571Z,98973.78
2022-08-16T09:41:53.359Z,98969.97
2022-08-16T09:45:10.781Z,98966.56
2022-08-16T09:47:11.892Z,98964.13
2022-08-16T09:49:40.832Z,98969.81
2022-08-16T09:52:10.334Z,98966.47
2022-08-16T09:54:44.276Z,98972.56
2022-08-16T09:59:42.327Z,98963.34
2022-08-16T10:04:55.139Z,98964.34
2022-08-16T10:07:23.542Z,98950.38
2022-08-16T10:09:54.864Z,98956.22
2022-08-16T10:12:44.027Z,98955.53
2022-08-16T10:15:16.014Z,98951.84
2022-08-16T10:23:06.156Z,98946.19
2022-08-16T10:27:19.265Z,98942.53
2022-08-16T10:28:29.992Z,98954.72
2022-08-16T10:36:03.834Z,98942.34
2022-08-16T10:41:05.116Z,98943.09
2022-08-16T10:46:33.664Z,98943.50
2022-08-16T10:48:53.929Z,98932.97
2022-08-16T10:51:33.332Z,98938.63
2022-08-16T10:56:52.498Z,98936.53
2022-08-16T10:59:46.037Z,98934.59
2022-08-16T11:03:37.516Z,98947.59
2022-08-16T11:05:12.230Z,98936.31
2022-08-16T11:19:04.128Z,98939.97
2022-08-16T11:21:37.615Z,98937.47
2022-08-16T11:27:24.058Z,98938.16
2022-08-16T11:32:31.907Z,98939.75
2022-08-16T11:35:14.990Z,98944.78
2022-08-16T11:40:38.882Z,98951.50
2022-08-16T11:43:10.183Z,98947.91
2022-08-16T11:48:08.503Z,98941.94
2022-08-16T11:50:36.530Z,98942.28
2022-08-16T12:00:50.548Z,98941.56
2022-08-16T12:03:34.649Z,98945.72
2022-08-16T12:06:11.053Z,98945.78
2022-08-16T12:08:53.292Z,98941.41
2022-08-16T12:13:51.839Z,98945.66
2022-08-16T12:16:20.744Z,98948.81
2022-08-16T12:18:50.441Z,98938.94
2022-08-16T12:21:18.402Z,98938.66
2022-08-16T12:26:15.508Z,98934.91
2022-08-16T12:28:53.957Z,98931.25
2022-08-16T12:43:52.308Z,98915.81
2022-08-16T12:56:34.596Z,98921.78
2022-08-16T12:59:07.610Z,98923.31
2022-08-16T13:04:20.306Z,98914.25
2022-08-16T13:06:52.285Z,98906.25
2022-08-16T13:14:32.216Z,98907.22
2022-08-16T13:17:02.713Z,98893.50
2022-08-16T13:20:03.437Z,98905.44
2022-08-16T13:35:07.179Z,98888.03
2022-08-16T14:18:15.967Z,98873.56
2022-08-16T14:20:39.565Z,98862.78
2022-08-16T14:23:17.848Z,98865.50
2022-08-16T14:30:52.303Z,98852.56
2022-08-16T16:53:17.836Z,98833.13
2022-08-16T16:58:36.482Z,98835.78
2022-08-16T17:39:23.834Z,98841.84
2022-08-16T17:41:51.819Z,98856.28
2022-08-16T17:44:21.115Z,98852.72
2022-08-16T17:46:51.263Z,98846.16
2022-08-16T17:56:58.530Z,98851.91
2022-08-16T18:01:59.254Z,98854.28
2022-08-16T18:12:33.986Z,98854.06
2022-08-16T18:20:31.312Z,98857.22
2022-08-16T18:25:32.666Z,98855.81
2022-08-16T18:28:00.599Z,98852.09
2022-08-16T18:35:25.971Z,98854.75
2022-08-16T18:37:54.021Z,98857.53
2022-08-16T18:40:21.827Z,98852.66
2022-08-16T18:43:00.176Z,98852.06
2022-08-16T18:45:35.699Z,98847.41
2022-08-16T18:48:05.925Z,98849.84
2022-08-16T18:51:04.246Z,98853.56
2022-08-16T18:53:25.218Z,98850.13
2022-08-16T18:55:55.534Z,98852.22
2022-08-16T19:03:26.335Z,98875.56
2022-08-16T19:05:58.203Z,98882.13
2022-08-16T19:10:55.327Z,98879.88
2022-08-16T19:13:25.841Z,98883.16
2022-08-16T19:15:58.339Z,98880.91
2022-08-16T19:18:26.742Z,98878.56
2022-08-16T19:20:59.265Z,98875.81
2022-08-16T19:23:33.248Z,98880.06
2022-08-16T19:26:03.473Z,98882.88
2022-08-16T19:31:24.260Z,98900.41
2022-08-16T19:33:57.421Z,98898.72
2022-08-16T19:39:04.993Z,98899.53
2022-08-16T19:41:34.096Z,98900.41
2022-08-16T19:44:01.947Z,98901.00
2022-08-16T19:46:31.972Z,98901.09
2022-08-16T19:49:00.028Z,98909.25
2022-08-16T19:51:27.993Z,98911.81
2022-08-16T19:53:55.857Z,98912.88
2022-08-16T19:56:25.899Z,98910.50
2022-08-16T20:01:44.098Z,98919.81
2022-08-16T20:04:13.344Z,98923.97
2022-08-16T20:06:41.489Z,98927.69
2022-08-16T20:09:10.341Z,98924.78
2022-08-16T20:11:42.821Z,98915.59
2022-08-16T20:14:10.774Z,98931.63
2022-08-16T20:16:38.627Z,98924.56
2022-08-16T20:19:08.064Z,98933.16
2022-08-16T20:21:36.400Z,98927.44
2022-08-16T20:24:31.886Z,98932.34
2022-08-16T20:26:52.400Z,98936.63
2022-08-16T20:29:20.580Z,98935.50
2022-08-16T20:31:49.883Z,98937.56
2022-08-16T20:34:19.199Z,98939.16
2022-08-16T20:36:47.019Z,98939.97
2022-08-16T20:39:14.989Z,98947.22
2022-08-16T20:41:43.713Z,98946.44
2022-08-16T20:44:12.819Z,98948.69
2022-08-16T20:46:40.707Z,98950.88
2022-08-16T20:51:49.727Z,98955.00
2022-08-16T20:54:20.294Z,98952.81
2022-08-16T20:56:48.145Z,98955.81
2022-08-16T20:59:16.248Z,98954.38
2022-08-16T21:01:47.016Z,98955.78
2022-08-16T21:04:18.319Z,98956.59
2022-08-16T21:06:53.426Z,98958.16
2022-08-16T21:09:23.332Z,98959.25
2022-08-16T21:11:53.504Z,98961.13
2022-08-16T21:14:21.408Z,98967.56
2022-08-16T21:16:49.440Z,98973.56
2022-08-16T21:21:47.006Z,98963.75
2022-08-16T21:24:15.559Z,98959.47
2022-08-16T21:26:47.397Z,98969.88
2022-08-16T21:29:24.833Z,98968.00
2022-08-16T21:31:53.078Z,98966.53
2022-08-16T21:34:20.932Z,98973.63
2022-08-16T21:36:52.130Z,98964.81
2022-08-16T21:39:20.521Z,98972.69
2022-08-16T21:41:48.330Z,98966.69
2022-08-16T21:44:16.132Z,98970.13
2022-08-16T21:46:43.985Z,98964.06
2022-08-16T21:49:11.859Z,98962.75
2022-08-16T21:51:39.774Z,98964.09
2022-08-16T21:54:09.314Z,98963.06
2022-08-16T21:56:37.188Z,98971.56
2022-08-16T21:59:10.779Z,98978.75
2022-08-16T22:01:41.463Z,98979.88
2022-08-16T22:04:37.230Z,98977.09
2022-08-16T22:09:28.172Z,98989.28
2022-08-16T22:11:56.067Z,98991.16
2022-08-16T22:14:23.894Z,98994.75
2022-08-16T22:16:51.831Z,98994.03
2022-08-16T22:26:44.878Z,98995.25
2022-08-16T22:31:43.977Z,99001.13
2022-08-16T22:34:12.186Z,98994.09
2022-08-16T22:39:10.072Z,98995.78
2022-08-16T22:41:39.596Z,98994.22
2022-08-16T22:44:09.263Z,98992.53
2022-08-16T22:46:37.851Z,98992.25
2022-08-16T22:49:06.698Z,98994.53
2022-08-16T22:54:34.171Z,99006.31
2022-08-16T22:56:52.864Z,99000.59
2022-08-16T22:59:24.892Z,99002.56
2022-08-16T23:01:53.599Z,98996.91
2022-08-16T23:06:49.813Z,98994.44
2022-08-16T23:09:17.656Z,98987.22
2022-08-16T23:11:45.830Z,98994.97
2022-08-16T23:14:13.663Z,98992.97
2022-08-16T23:16:43.878Z,99000.88
2022-08-16T23:19:13.416Z,98995.59
2022-08-16T23:21:44.304Z,98995.19
2022-08-16T23:26:46.736Z,98998.69
2022-08-16T23:31:53.497Z,98992.41
2022-08-16T23:34:21.741Z,98986.88
2022-08-16T23:39:17.518Z,98986.19
2022-08-16T23:44:54.963Z,98980.13
2022-08-16T23:47:02.508Z,98984.75
2022-08-16T23:49:55.926Z,98971.00
2022-08-16T23:52:48.814Z,98966.72
2022-08-16T23:55:08.164Z,98974.03
2022-08-16T23:57:35.998Z,98972.38
